createdAt,value
2018-10-18T15:23:18.962Z,21.64
2018-10-18T15:24:20.605Z,21.52
2018-10-18T15:25:18.907Z,21.55
2018-10-18T15:26:18.950Z,21.51
2018-10-18T15:27:18.751Z,21.51
2018-10-18T15:28:18.566Z,21.55
2018-10-18T15:29:18.595Z,21.51
2018-10-18T15:30:18.374Z,21.36
2018-10-18T15:31:18.269Z,21.24
2018-10-18T15:32:18.234Z,21.24
2018-10-18T15:33:18.664Z,21.26
2018-10-18T15:34:17.966Z,21.18
2018-10-18T15:35:18.001Z,21.15
2018-10-18T15:36:17.754Z,21.12
2018-10-18T15:37:17.653Z,21.03
2018-10-18T15:38:17.826Z,21.09
2018-10-18T15:39:17.645Z,21.09
2018-10-18T15:40:17.358Z,21.19
2018-10-18T15:41:17.363Z,21.15
2018-10-18T15:42:17.129Z,21.16
2018-10-18T15:43:17.608Z,21.13
2018-10-18T15:44:17.024Z,21.12
2018-10-18T15:45:16.888Z,21.13
2018-10-18T15:46:16.719Z,21.15
2018-10-18T15:47:16.728Z,21.18
2018-10-18T15:48:16.509Z,21.19
2018-10-18T15:49:16.410Z,21.15
2018-10-18T15:50:16.392Z,21.12
2018-10-18T15:51:16.299Z,21.19
2018-10-18T15:52:16.197Z,21.15
2018-10-18T15:53:16.340Z,21.15
2018-10-18T15:54:16.029Z,21.24
2018-10-18T15:55:15.768Z,21.37
2018-10-18T15:56:15.666Z,21.38
2018-10-18T15:57:15.584Z,21.33
2018-10-18T15:58:15.453Z,21.34
2018-10-18T15:59:15.541Z,21.37
2018-10-18T16:00:15.420Z,21.42
2018-10-18T16:01:15.141Z,21.36
2018-10-18T16:02:15.038Z,21.37
2018-10-18T16:03:14.946Z,21.33
2018-10-18T16:04:14.850Z,21.36
2018-10-18T16:05:15.043Z,21.42
2018-10-18T16:06:14.696Z,21.34
2018-10-18T16:07:14.520Z,21.49
2018-10-18T16:08:14.420Z,21.55
2018-10-18T16:09:14.317Z,21.55
2018-10-18T16:10:14.224Z,21.48
2018-10-18T16:11:15.140Z,21.40
2018-10-18T16:12:14.010Z,21.46
2018-10-18T16:13:13.912Z,21.36
2018-10-18T16:14:13.938Z,21.48
2018-10-18T16:15:13.713Z,21.51
2018-10-18T16:16:13.622Z,21.51
2018-10-18T16:17:13.615Z,21.48
2018-10-18T16:18:13.410Z,21.46
2018-10-18T16:19:13.317Z,21.51
2018-10-18T16:20:13.315Z,21.43
2018-10-18T16:21:13.118Z,21.48
2018-10-18T16:22:13.098Z,21.48
2018-10-18T16:23:12.949Z,21.48
2018-10-18T16:24:12.895Z,21.48
2018-10-18T16:25:12.733Z,21.46
2018-10-18T16:26:13.804Z,21.46
2018-10-18T16:27:13.095Z,21.42
2018-10-18T16:28:12.419Z,21.53
2018-10-18T16:29:12.432Z,21.58
2018-10-18T16:30:12.232Z,21.59
2018-10-18T16:31:12.106Z,21.58
2018-10-18T16:32:12.771Z,21.58
2018-10-18T16:33:11.884Z,21.42
2018-10-18T16:34:11.789Z,21.55
2018-10-18T16:35:11.716Z,21.51
2018-10-18T16:36:12.106Z,21.53
2018-10-18T16:37:11.441Z,21.46
2018-10-18T16:38:11.379Z,21.49
2018-10-18T16:39:11.213Z,21.55
2018-10-18T16:40:11.106Z,21.56
2018-10-18T16:41:11.174Z,21.63
2018-10-18T16:42:10.870Z,21.58
2018-10-18T16:43:10.763Z,21.66
2018-10-18T16:44:10.725Z,21.52
2018-10-18T16:45:10.520Z,21.63
2018-10-18T16:46:10.537Z,21.55
2018-10-18T16:47:10.286Z,21.66
2018-10-18T16:48:10.236Z,21.61
2018-10-18T16:49:10.050Z,21.55
2018-10-18T16:50:11.381Z,21.67
2018-10-18T16:51:11.852Z,21.61
2018-10-18T16:52:09.892Z,21.68
2018-10-18T16:53:09.605Z,21.64
2018-10-18T16:54:09.731Z,21.73
2018-10-18T16:55:09.317Z,21.79
2018-10-18T16:56:09.223Z,21.83
